This is the latest recevied weather packets stored in our database for station/object LZ3DJ-10. If no packets are shown the sender has not sent any weather packets the latest 10 day(s).
| Time | Temp. | Humidity | Pressure | Rain* | Wind** | Luminosity | Snow |
|---|---|---|---|---|---|---|---|
| 1787828406 | 32.22° C | 36% | 1012.8 hPa | 0 mm | 0.45 m/s, 334° | - | - |
| 1787827506 | 31.67° C | 39% | 1013.2 hPa | 0 mm | 0.89 m/s, 322° | - | - |
| 1787826605 | 31.11° C | 40% | 1013.4 hPa | 0 mm | 0.89 m/s, 342° | - | - |
| 1787825706 | 31.11° C | 41% | 1013.5 hPa | 0 mm | 0.89 m/s, 324° | - | - |
| 1787824806 | 30° C | 43% | 1013.9 hPa | 0 mm | 0.45 m/s, 328° | - | - |
| 1787823905 | 30° C | 45% | 1014.1 hPa | 0 mm | 0.89 m/s, 329° | - | - |
| 1787823005 | 28.89° C | 47% | 1014.4 hPa | 0 mm | 0.45 m/s, 338° | - | - |
| 1787822105 | 28.33° C | 48% | 1014.4 hPa | 0 mm | 0.45 m/s, 325° | - | - |
| 1787821206 | 27.78° C | 50% | 1014.6 hPa | 0 mm | 0.89 m/s, 331° | - | - |
| 1787820306 | 27.22° C | 50% | 1014.8 hPa | 0 mm | 0.89 m/s, 321° | - | - |
| 1787819406 | 26.67° C | 54% | 1015 hPa | 0 mm | 0 m/s | - | - |
| 1787818505 | 26.11° C | 54% | 1015.1 hPa | 0 mm | 0.45 m/s, 329° | - | - |
| 1787817605 | 26.11° C | 57% | 1015.1 hPa | 0 mm | 0 m/s | - | - |
| 1787816706 | 25.56° C | 60% | 1015.1 hPa | 0 mm | 0 m/s | - | - |
| 1787815805 | 25° C | 62% | 1015.3 hPa | 0 mm | 0 m/s | - | - |
| 1787814906 | 23.89° C | 64% | 1015.6 hPa | 0 mm | 0 m/s | - | - |
| 1787814005 | 23.33° C | 67% | 1015.7 hPa | 0 mm | 0 m/s | - | - |
| 1787813105 | 22.78° C | 68% | 1015.8 hPa | 0 mm | 0 m/s | - | - |
| 1787812205 | 22.22° C | 69% | 1015.8 hPa | 0 mm | 0 m/s | - | - |
| 1787811305 | 21.11° C | 72% | 1016.1 hPa | 0 mm | 0 m/s | - | - |
| 1787810405 | 20.56° C | 73% | 1016.5 hPa | 0 mm | 0 m/s | - | - |
| 1787809505 | 20° C | 74% | 1016.6 hPa | 0 mm | 0 m/s | - | - |
| 1787808606 | 19.44° C | 75% | 1016.6 hPa | 0 mm | 0 m/s | - | - |
| 1787807705 | 19.44° C | 76% | 1016.6 hPa | 0 mm | 0 m/s | - | - |
| 1787806806 | 18.89° C | 77% | 1016.5 hPa | 0 mm | 0 m/s | - | - |
* Rain latest hour (hover to see other rain measurements)
** Current wind speed in m/s (hover to see current wind gust speed)